Time;durP1;ratioP1;P1;durP2;ratioP2;P2;SDS_P1;SDS_P2;PMS_P1;PMS_P2;Temp;Humidity;BMP_temperature;BMP_pressure;BME280_temperature;BME280_humidity;BME280_pressure;Samples;Min_cycle;Max_cycle;Signal;HPM_P1;HPM_P2
2020/12/18 00:00:28;;;;;;;8.43;7.63;;;5.00;99.90;;;;;;5033494;28;20477;-77
2020/12/18 00:02:55;;;;;;;11.57;10.57;;;4.90;99.90;;;;;;5033580;28;20211;-78
2020/12/18 00:05:21;;;;;;;9.90;9.03;;;4.80;99.90;;;;;;5035239;28;20937;-78
2020/12/18 00:07:47;;;;;;;9.13;8.33;;;4.80;99.90;;;;;;5029842;28;20882;-77
2020/12/18 00:10:14;;;;;;;16.87;15.37;;;4.70;99.90;;;;;;5035160;28;20853;-77
2020/12/18 00:12:41;;;;;;;15.43;14.33;;;4.70;99.90;;;;;;5035063;28;20469;-78
2020/12/18 00:15:07;;;;;;;15.07;14.00;;;4.70;99.90;;;;;;5034849;28;20429;-77
2020/12/18 00:17:33;;;;;;;11.20;10.20;;;4.70;99.90;;;;;;5031676;28;21009;-77
2020/12/18 00:19:59;;;;;;;12.37;11.27;;;4.70;99.90;;;;;;5033358;28;20852;-78
2020/12/18 00:22:27;;;;;;;8.80;7.90;;;4.70;99.90;;;;;;5025435;28;20447;-78
2020/12/18 00:24:53;;;;;;;10.23;9.20;;;4.80;99.90;;;;;;5035322;28;20456;-77
2020/12/18 00:27:20;;;;;;;12.43;11.43;;;4.80;99.90;;;;;;5024379;28;20475;-78
2020/12/18 00:29:46;;;;;;;9.47;8.53;;;4.70;99.90;;;;;;5033253;28;20922;-78
2020/12/18 00:32:13;;;;;;;6.27;5.63;;;4.60;99.90;;;;;;5032655;28;20899;-78
2020/12/18 00:34:39;;;;;;;6.80;5.40;;;4.60;99.90;;;;;;5034402;28;20487;-77
2020/12/18 00:37:05;;;;;;;5.87;5.20;;;4.50;99.90;;;;;;5018223;23;20592;-78
2020/12/18 00:39:31;;;;;;;7.00;5.97;;;4.40;99.90;;;;;;4972877;28;20472;-78
2020/12/18 00:41:58;;;;;;;5.60;5.00;;;4.30;99.90;;;;;;4976733;28;20957;-78
2020/12/18 00:44:25;;;;;;;12.07;11.07;;;4.20;99.90;;;;;;4974274;28;20806;-77
2020/12/18 00:46:51;;;;;;;13.90;12.70;;;4.10;99.90;;;;;;4974839;28;20934;-78
2020/12/18 00:49:18;;;;;;;9.23;8.23;;;4.00;99.90;;;;;;4973797;28;20449;-78
2020/12/18 00:51:44;;;;;;;6.17;5.30;;;4.00;99.90;;;;;;4967154;28;20483;-78
2020/12/18 00:54:10;;;;;;;6.90;6.10;;;4.00;99.90;;;;;;4967196;28;20467;-78
2020/12/18 00:56:36;;;;;;;7.33;5.93;;;4.00;99.90;;;;;;4974709;28;20830;-78
2020/12/18 00:59:03;;;;;;;6.27;5.67;;;4.00;99.90;;;;;;4974413;28;20448;-78
2020/12/18 01:01:30;;;;;;;6.33;5.57;;;4.00;99.90;;;;;;4971124;28;20456;-78
2020/12/18 01:03:57;;;;;;;6.63;5.90;;;3.90;99.90;;;;;;4971636;28;20461;-78
2020/12/18 01:06:23;;;;;;;6.73;5.57;;;3.90;99.90;;;;;;4963556;28;20850;-78
2020/12/18 01:08:58;;;;;;;7.07;6.37;;;3.80;99.90;;;;;;4970507;28;20456;-78
2020/12/18 01:11:28;;;;;;;16.87;15.63;;;3.90;99.90;;;;;;4965527;28;20450;-78
2020/12/18 01:13:55;;;;;;;13.27;12.30;;;3.90;99.90;;;;;;4974370;28;20851;-78
2020/12/18 01:16:22;;;;;;;15.17;14.00;;;4.00;99.90;;;;;;4971907;28;20464;-78
2020/12/18 01:18:56;;;;;;;8.40;7.60;;;4.10;99.90;;;;;;4973823;28;20445;-78
2020/12/18 01:21:22;;;;;;;10.90;10.03;;;4.10;99.90;;;;;;4970810;28;20456;-78
2020/12/18 01:23:49;;;;;;;13.20;12.23;;;4.20;99.90;;;;;;4970656;28;20448;-79
2020/12/18 01:26:16;;;;;;;10.67;9.87;;;4.30;99.90;;;;;;4971147;28;20466;-78
2020/12/18 01:28:43;;;;;;;6.10;5.50;;;4.40;99.90;;;;;;4966265;28;20929;-78
2020/12/18 01:31:10;;;;;;;11.57;10.67;;;4.50;99.90;;;;;;4966487;28;20452;-78
2020/12/18 01:33:36;;;;;;;7.30;6.60;;;4.50;99.90;;;;;;4974426;28;20450;-78
2020/12/18 01:36:13;;;;;;;11.37;10.27;;;4.50;99.90;;;;;;4972974;28;20497;-78
2020/12/18 01:38:42;;;;;;;7.83;6.37;;;4.60;99.90;;;;;;4969265;28;20481;-78
2020/12/18 01:41:08;;;;;;;9.83;9.03;;;4.60;99.90;;;;;;4965318;28;20502;-78
2020/12/18 01:43:36;;;;;;;10.77;9.97;;;4.60;99.90;;;;;;4966846;28;20975;-78
2020/12/18 01:46:09;;;;;;;13.00;11.90;;;4.70;99.90;;;;;;4973302;28;20481;-78
2020/12/18 01:48:36;;;;;;;12.53;11.63;;;4.60;99.90;;;;;;4971963;28;20449;-78
2020/12/18 01:51:09;;;;;;;12.73;11.63;;;4.70;99.90;;;;;;4971554;28;20506;-78
2020/12/18 01:53:37;;;;;;;10.67;9.57;;;4.60;99.90;;;;;;4972033;28;21012;-78
2020/12/18 01:56:15;;;;;;;12.13;11.00;;;4.70;99.90;;;;;;4964599;28;20468;-78
2020/12/18 01:58:49;;;;;;;11.00;10.10;;;4.70;99.90;;;;;;4968248;28;20476;-78
2020/12/18 02:01:24;;;;;;;12.63;11.63;;;4.70;99.90;;;;;;4973994;28;20444;-78
2020/12/18 02:04:17;;;;;;;12.80;11.70;;;4.70;99.90;;;;;;4969968;28;20505;-78
2020/12/18 02:06:53;;;;;;;11.60;10.60;;;4.80;99.90;;;;;;4970719;28;20997;-78
2020/12/18 02:09:24;;;;;;;8.50;7.80;;;4.80;99.90;;;;;;4965586;28;20480;-78
2020/12/18 02:11:55;;;;;;;14.60;13.50;;;4.80;99.90;;;;;;4973661;28;20445;-78
2020/12/18 02:14:22;;;;;;;7.20;6.50;;;4.90;99.90;;;;;;4972237;28;21033;-78
2020/12/18 02:16:54;;;;;;;11.87;11.07;;;4.90;99.90;;;;;;4973759;28;20532;-78
2020/12/18 02:19:35;;;;;;;12.33;11.33;;;4.90;99.90;;;;;;4969609;28;20452;-78
2020/12/18 02:22:11;;;;;;;8.53;7.83;;;5.00;99.90;;;;;;4969853;28;20540;-78
2020/12/18 02:24:41;;;;;;;15.57;14.47;;;4.90;99.90;;;;;;4973872;28;20482;-78
2020/12/18 02:27:10;;;;;;;15.23;14.13;;;5.00;99.90;;;;;;4970129;28;20210;-78
2020/12/18 02:29:39;;;;;;;15.30;14.30;;;5.00;99.90;;;;;;4970364;28;20835;-78
2020/12/18 02:32:10;;;;;;;15.40;14.37;;;5.10;99.90;;;;;;4972520;28;20674;-79
2020/12/18 02:34:42;;;;;;;10.20;9.30;;;5.10;99.90;;;;;;4962108;28;20533;-78
2020/12/18 02:37:16;;;;;;;11.00;10.10;;;5.20;99.90;;;;;;4971460;28;20522;-78
2020/12/18 02:39:43;;;;;;;9.73;8.37;;;5.20;99.90;;;;;;4972449;28;20832;-78
2020/12/18 02:42:19;;;;;;;9.07;8.17;;;5.20;99.90;;;;;;4963286;28;20193;-79
2020/12/18 02:44:48;;;;;;;8.27;7.50;;;5.30;99.90;;;;;;4967978;28;20449;-78
2020/12/18 02:47:41;;;;;;;8.10;6.93;;;5.30;99.90;;;;;;4967963;28;20464;-78
2020/12/18 02:50:22;;;;;;;16.50;15.07;;;5.30;99.90;;;;;;4965444;28;20208;-78
2020/12/18 02:52:52;;;;;;;17.40;16.20;;;5.30;99.90;;;;;;4970666;28;20448;-78
2020/12/18 02:55:36;;;;;;;18.03;16.50;;;5.30;99.90;;;;;;4968147;28;20256;-78
2020/12/18 02:58:37;;;;;;;18.10;16.60;;;5.30;99.90;;;;;;4969989;28;20568;-79
2020/12/18 03:01:04;;;;;;;18.40;16.90;;;5.30;99.90;;;;;;4969418;28;20438;-78
2020/12/18 03:03:30;;;;;;;18.70;17.03;;;5.20;99.90;;;;;;4957959;28;20198;-78
2020/12/18 03:06:16;;;;;;;17.77;16.43;;;5.30;99.90;;;;;;4975294;28;20217;-78
2020/12/18 03:08:48;;;;;;;18.80;17.30;;;5.20;99.90;;;;;;4974132;28;21074;-78
2020/12/18 03:11:15;;;;;;;18.73;17.13;;;5.20;99.90;;;;;;4977863;28;20443;-78
2020/12/18 03:13:44;;;;;;;18.30;16.70;;;5.20;99.90;;;;;;4976807;28;20209;-78
2020/12/18 03:16:10;;;;;;;20.17;18.37;;;5.20;99.90;;;;;;4971317;28;20214;-78
2020/12/18 03:18:48;;;;;;;18.33;16.83;;;5.20;99.90;;;;;;4976685;28;20281;-78
2020/12/18 03:21:15;;;;;;;18.20;16.80;;;5.20;99.90;;;;;;4973254;28;20202;-78
2020/12/18 03:24:02;;;;;;;19.20;17.50;;;5.20;99.90;;;;;;4970681;28;20202;-78
2020/12/18 03:26:45;;;;;;;18.47;17.17;;;5.20;99.90;;;;;;4970968;28;20221;-78
2020/12/18 03:29:20;;;;;;;18.13;16.83;;;5.20;99.90;;;;;;4973693;28;20260;-78
2020/12/18 03:31:48;;;;;;;18.47;16.97;;;5.20;99.90;;;;;;4974911;28;20276;-78
2020/12/18 03:34:14;;;;;;;18.93;17.53;;;5.20;99.90;;;;;;4975150;28;20202;-78
2020/12/18 03:36:54;;;;;;;17.53;16.30;;;5.20;99.90;;;;;;4976428;28;20271;-78
2020/12/18 03:39:20;;;;;;;17.70;16.40;;;5.20;99.90;;;;;;4975348;28;20785;-78
2020/12/18 03:42:02;;;;;;;19.37;17.77;;;5.20;99.90;;;;;;4968617;28;20682;-78
2020/12/18 03:44:30;;;;;;;19.00;17.50;;;5.20;99.90;;;;;;4973995;28;20675;-78
2020/12/18 03:46:56;;;;;;;18.17;16.67;;;5.20;99.90;;;;;;4974379;28;20477;-79
2020/12/18 03:49:34;;;;;;;19.10;17.43;;;5.20;99.90;;;;;;4974814;28;20212;-78
2020/12/18 03:52:04;;;;;;;19.37;17.80;;;5.10;99.90;;;;;;4975996;28;20879;-79
2020/12/18 03:54:38;;;;;;;18.87;17.37;;;5.10;99.90;;;;;;4975807;28;20441;-79
2020/12/18 03:57:19;;;;;;;17.67;16.37;;;5.10;99.90;;;;;;4976075;28;20253;-80
2020/12/18 04:00:06;;;;;;;17.27;16.07;;;5.10;99.90;;;;;;4972625;28;20209;-79
2020/12/18 04:02:49;;;;;;;16.90;15.70;;;5.20;99.90;;;;;;4972905;28;20249;-81
2020/12/18 04:05:18;;;;;;;18.20;16.70;;;5.20;99.90;;;;;;4974703;28;20452;-79
2020/12/18 04:07:46;;;;;;;17.57;16.17;;;5.20;99.90;;;;;;4965538;28;20473;-78
2020/12/18 04:10:25;;;;;;;17.90;16.50;;;5.20;99.90;;;;;;4973701;28;20202;-77
2020/12/18 04:13:15;;;;;;;17.63;16.20;;;5.20;99.90;;;;;;4975637;28;20209;-78
2020/12/18 04:15:42;;;;;;;18.90;17.37;;;5.20;99.90;;;;;;4972689;28;20221;-78
2020/12/18 04:18:12;;;;;;;18.90;17.40;;;5.10;99.90;;;;;;4946877;29;20278;-78
2020/12/18 04:20:39;;;;;;;17.83;16.53;;;5.10;99.90;;;;;;4939483;29;20202;-78
2020/12/18 04:23:25;;;;;;;19.37;17.87;;;5.00;99.90;;;;;;4936769;29;20473;-78
2020/12/18 04:26:15;;;;;;;18.93;17.43;;;5.00;99.90;;;;;;4951333;28;20509;-78
2020/12/18 04:28:43;;;;;;;19.23;17.73;;;4.90;99.90;;;;;;4949387;29;20442;-78
2020/12/18 04:31:12;;;;;;;19.30;17.83;;;4.80;99.90;;;;;;4939148;29;20997;-78
2020/12/18 04:33:38;;;;;;;19.10;17.57;;;4.80;99.90;;;;;;4939075;29;20966;-78
2020/12/18 04:36:05;;;;;;;19.10;17.70;;;4.70;99.90;;;;;;4934297;29;20540;-78
2020/12/18 04:38:35;;;;;;;20.50;18.90;;;4.70;99.90;;;;;;4938703;28;20722;-78
2020/12/18 04:41:08;;;;;;;20.23;18.63;;;4.60;99.90;;;;;;4931411;29;20436;-78
2020/12/18 04:43:41;;;;;;;19.07;17.67;;;4.60;99.90;;;;;;4949575;28;20451;-78
2020/12/18 04:46:18;;;;;;;19.77;18.17;;;4.60;99.90;;;;;;4951476;28;20988;-78
2020/12/18 04:48:47;;;;;;;19.63;18.03;;;4.60;99.90;;;;;;4949377;28;20674;-76
2020/12/18 04:51:19;;;;;;;20.03;18.47;;;4.60;99.90;;;;;;4972148;28;20449;-76
2020/12/18 04:53:52;;;;;;;19.77;18.23;;;4.60;99.90;;;;;;4971749;28;20450;-76
2020/12/18 04:56:27;;;;;;;20.77;18.97;;;4.70;99.90;;;;;;4973366;28;20492;-76
2020/12/18 04:59:01;;;;;;;20.40;18.70;;;4.70;99.90;;;;;;4970712;28;20481;-75
2020/12/18 05:01:45;;;;;;;20.33;18.73;;;4.70;99.90;;;;;;4967654;28;20206;-76
2020/12/18 05:04:15;;;;;;;18.93;17.53;;;4.80;99.90;;;;;;4971825;28;20446;-76
2020/12/18 05:06:47;;;;;;;19.23;17.67;;;4.80;99.90;;;;;;4967551;28;20269;-76
2020/12/18 05:09:22;;;;;;;20.10;18.50;;;4.90;99.90;;;;;;4980873;28;20467;-78
2020/12/18 05:11:51;;;;;;;20.97;19.17;;;4.90;99.90;;;;;;4974651;28;20449;-76
2020/12/18 05:14:18;;;;;;;20.47;18.87;;;4.90;99.90;;;;;;4973278;28;20201;-76
2020/12/18 05:17:05;;;;;;;19.50;18.00;;;4.90;99.90;;;;;;4973248;28;20253;-76
2020/12/18 05:19:35;;;;;;;19.17;17.57;;;5.00;99.90;;;;;;4961561;28;20473;-76
2020/12/18 05:22:23;;;;;;;19.67;18.03;;;5.00;99.90;;;;;;4973314;28;20819;-76
2020/12/18 05:25:09;;;;;;;18.83;17.33;;;5.00;99.90;;;;;;4971965;28;20212;-76
2020/12/18 05:27:42;;;;;;;20.00;18.40;;;5.00;99.90;;;;;;4972877;28;20461;-77
2020/12/18 05:30:09;;;;;;;19.80;18.30;;;5.00;99.90;;;;;;4972496;28;20304;-77
2020/12/18 05:32:37;;;;;;;19.83;18.23;;;5.10;99.90;;;;;;4974366;28;20525;-78
2020/12/18 05:35:11;;;;;;;20.40;18.70;;;5.00;99.90;;;;;;4974008;28;20276;-78
2020/12/18 05:37:46;;;;;;;19.87;18.27;;;5.10;99.90;;;;;;4972840;28;20481;-76
2020/12/18 05:40:22;;;;;;;18.90;17.50;;;5.00;99.90;;;;;;4967506;28;20551;-77
2020/12/18 05:43:08;;;;;;;19.13;17.53;;;5.00;99.90;;;;;;4969740;28;20197;-77
2020/12/18 05:45:42;;;;;;;19.33;17.73;;;5.00;99.90;;;;;;4967695;28;20480;-77
2020/12/18 05:48:35;;;;;;;20.27;18.60;;;5.00;99.90;;;;;;4966310;28;20492;-77
2020/12/18 05:51:10;;;;;;;19.80;18.30;;;5.00;99.90;;;;;;4969406;28;20891;-77
2020/12/18 05:53:37;;;;;;;20.10;18.53;;;5.00;99.90;;;;;;4969881;28;20443;-77
2020/12/18 05:56:32;;;;;;;20.30;18.70;;;5.00;99.90;;;;;;4970956;28;20564;-77
2020/12/18 05:59:12;;;;;;;19.83;18.33;;;4.90;99.90;;;;;;4972450;28;20473;-76
2020/12/18 06:01:48;;;;;;;19.73;18.13;;;4.90;99.90;;;;;;4961480;28;20970;-76
2020/12/18 06:04:37;;;;;;;20.40;18.80;;;4.90;99.90;;;;;;4962673;28;20502;-76
2020/12/18 06:07:11;;;;;;;19.90;18.30;;;4.90;99.90;;;;;;4962569;28;20210;-77
2020/12/18 06:10:03;;;;;;;19.70;18.10;;;4.90;99.90;;;;;;4968759;28;20501;-75
2020/12/18 06:12:50;;;;;;;19.17;17.77;;;4.80;99.90;;;;;;4964325;28;20958;-75
2020/12/18 06:15:18;;;;;;;20.03;18.50;;;4.80;99.90;;;;;;4964287;28;20456;-77
2020/12/18 06:17:46;;;;;;;21.40;19.63;;;4.80;99.90;;;;;;4971962;28;20850;-75
2020/12/18 06:20:15;;;;;;;21.73;20.03;;;4.80;99.90;;;;;;4971635;28;20198;-76
2020/12/18 06:22:57;;;;;;;22.47;20.87;;;4.70;99.90;;;;;;4972020;28;20457;-76
2020/12/18 06:25:41;;;;;;;22.53;20.83;;;4.80;99.90;;;;;;4961826;28;20460;-77
2020/12/18 06:28:34;;;;;;;21.17;19.37;;;4.80;99.90;;;;;;4968484;28;20893;-75
2020/12/18 06:31:24;;;;;;;20.50;18.90;;;4.80;99.90;;;;;;4971805;28;20467;-76
2020/12/18 06:34:24;;;;;;;20.73;19.20;;;4.80;99.90;;;;;;4969799;28;20569;-75
2020/12/18 06:37:32;;;;;;;20.37;18.67;;;4.80;99.90;;;;;;4972657;28;20512;-76
2020/12/18 06:40:28;;;;;;;20.97;19.20;;;4.90;99.90;;;;;;4972756;28;20432;-77
2020/12/18 06:43:34;;;;;;;20.07;18.47;;;4.90;99.90;;;;;;4962663;28;20989;-77
2020/12/18 06:46:19;;;;;;;19.80;18.30;;;4.90;99.90;;;;;;4969796;28;20524;-77
2020/12/18 06:50:14;;;;;;;19.67;18.07;;;4.90;99.90;;;;;;4965575;28;20451;-77
2020/12/18 06:53:15;;;;;;;20.47;18.70;;;5.00;99.90;;;;;;4969707;28;20208;-77
2020/12/18 06:56:04;;;;;;;21.43;19.63;;;5.00;99.90;;;;;;4972354;28;21261;-77
2020/12/18 06:58:45;;;;;;;20.80;19.20;;;5.00;99.90;;;;;;4966126;28;20476;-77
2020/12/18 07:01:29;;;;;;;21.23;19.43;;;5.10;99.90;;;;;;4966480;28;20504;-77
2020/12/18 07:03:55;;;;;;;20.67;19.07;;;5.10;99.90;;;;;;4967456;28;20492;-77
2020/12/18 07:06:23;;;;;;;20.83;19.20;;;5.10;99.90;;;;;;4971539;28;20469;-77
2020/12/18 07:08:51;;;;;;;21.00;19.27;;;5.10;99.90;;;;;;4964590;28;20562;-77
2020/12/18 07:11:19;;;;;;;22.87;20.70;;;5.10;99.90;;;;;;4972745;28;20425;-77
2020/12/18 07:13:51;;;;;;;21.43;19.73;;;5.10;99.90;;;;;;4971410;28;20759;-77
2020/12/18 07:16:20;;;;;;;25.77;23.37;;;5.20;99.90;;;;;;4971443;28;20472;-76
2020/12/18 07:18:48;;;;;;;22.07;20.17;;;5.20;99.90;;;;;;4971168;28;20224;-76
2020/12/18 07:21:15;;;;;;;22.67;20.77;;;5.20;99.90;;;;;;4971631;28;20671;-77
2020/12/18 07:23:43;;;;;;;22.70;20.83;;;5.30;99.90;;;;;;4972688;28;20444;-77
2020/12/18 07:26:11;;;;;;;22.57;20.77;;;5.30;99.90;;;;;;4971649;28;20221;-77
2020/12/18 07:28:39;;;;;;;21.00;19.27;;;5.30;99.90;;;;;;4971932;28;20194;-77
2020/12/18 07:31:14;;;;;;;21.13;19.33;;;5.30;99.90;;;;;;4973012;28;20686;-77
2020/12/18 07:33:40;;;;;;;21.10;19.40;;;5.30;99.90;;;;;;4971442;28;20302;-76
2020/12/18 07:36:07;;;;;;;20.73;19.13;;;5.30;99.90;;;;;;4972505;28;20718;-77
2020/12/18 07:38:34;;;;;;;20.60;18.80;;;5.40;99.90;;;;;;4971166;28;20237;-77
2020/12/18 07:41:01;;;;;;;20.97;19.23;;;5.40;99.90;;;;;;4971577;28;20201;-77
2020/12/18 07:43:30;;;;;;;20.03;18.33;;;5.40;99.90;;;;;;4968733;28;20224;-78
2020/12/18 07:45:59;;;;;;;19.20;17.70;;;5.50;99.90;;;;;;4977705;28;20722;-79
2020/12/18 07:48:27;;;;;;;19.63;18.00;;;5.50;99.90;;;;;;4974802;28;20194;-78
2020/12/18 07:50:59;;;;;;;19.13;17.73;;;5.60;99.90;;;;;;4973874;28;20213;-78
2020/12/18 07:53:27;;;;;;;19.40;17.90;;;5.60;99.90;;;;;;4974898;28;20222;-78
2020/12/18 07:56:04;;;;;;;20.73;19.03;;;5.60;99.90;;;;;;4975937;28;20222;-77
2020/12/18 07:58:32;;;;;;;19.90;18.30;;;5.60;99.90;;;;;;4966831;28;20221;-78
2020/12/18 08:01:06;;;;;;;18.70;17.30;;;5.70;99.90;;;;;;4974933;28;20202;-78
2020/12/18 08:03:33;;;;;;;19.43;17.73;;;5.60;99.90;;;;;;4967479;28;20666;-78
2020/12/18 08:06:02;;;;;;;19.07;17.57;;;5.70;99.90;;;;;;4976025;28;20237;-78
2020/12/18 08:08:29;;;;;;;19.77;18.23;;;5.70;99.90;;;;;;4966579;28;20233;-78
2020/12/18 08:10:55;;;;;;;19.23;17.73;;;5.70;99.90;;;;;;4976151;28;20201;-78
2020/12/18 08:13:26;;;;;;;19.90;18.50;;;5.80;99.90;;;;;;4976073;28;20614;-78
2020/12/18 08:16:06;;;;;;;19.67;18.13;;;5.80;99.90;;;;;;4974307;28;20733;-76
2020/12/18 08:18:33;;;;;;;17.43;15.90;;;5.80;99.90;;;;;;4966838;28;20197;-78
2020/12/18 08:20:59;;;;;;;15.17;13.83;;;5.90;99.90;;;;;;4974358;28;20225;-78
2020/12/18 08:23:27;;;;;;;14.10;12.80;;;5.90;99.90;;;;;;4974441;28;20202;-78
2020/12/18 08:25:55;;;;;;;12.80;11.60;;;6.00;99.90;;;;;;4974179;28;20206;-77
2020/12/18 08:28:22;;;;;;;14.10;12.70;;;6.00;99.90;;;;;;4974241;28;20222;-77
2020/12/18 08:30:49;;;;;;;14.87;13.37;;;6.10;99.90;;;;;;4974258;28;20268;-77
2020/12/18 08:33:19;;;;;;;13.90;12.53;;;6.10;99.90;;;;;;4974298;28;20237;-78
2020/12/18 08:35:47;;;;;;;12.13;9.97;;;6.10;99.90;;;;;;4975336;28;20631;-78
2020/12/18 08:38:14;;;;;;;12.53;11.07;;;6.10;99.90;;;;;;4975004;28;20224;-78
2020/12/18 08:40:42;;;;;;;13.23;9.80;;;6.10;99.90;;;;;;4975529;28;20229;-78
2020/12/18 08:43:10;;;;;;;14.90;13.40;;;6.20;99.90;;;;;;4974415;28;20714;-78
2020/12/18 08:45:42;;;;;;;12.10;10.10;;;6.30;99.90;;;;;;4973928;28;20666;-77
2020/12/18 08:48:08;;;;;;;21.37;19.57;;;6.40;99.90;;;;;;4974094;28;20214;-78
2020/12/18 08:50:35;;;;;;;20.20;18.57;;;6.40;99.90;;;;;;4973385;28;20199;-78
2020/12/18 08:53:09;;;;;;;19.47;17.90;;;6.50;99.90;;;;;;4974999;28;20568;-78
2020/12/18 08:55:35;;;;;;;14.77;13.37;;;6.50;99.90;;;;;;4969810;28;20213;-78
2020/12/18 08:58:05;;;;;;;13.00;11.70;;;6.60;99.90;;;;;;4973620;28;20297;-78
2020/12/18 09:00:32;;;;;;;20.53;18.87;;;6.60;99.90;;;;;;4969626;28;20200;-78
2020/12/18 09:03:01;;;;;;;20.10;18.50;;;6.60;99.90;;;;;;4973720;28;20661;-78
2020/12/18 09:05:29;;;;;;;19.70;18.20;;;6.70;99.90;;;;;;4973543;28;20202;-78
2020/12/18 09:08:01;;;;;;;21.10;19.40;;;6.60;99.90;;;;;;4974649;28;20221;-78
2020/12/18 09:10:33;;;;;;;21.03;19.23;;;6.60;99.90;;;;;;4974583;28;20198;-78
2020/12/18 09:13:14;;;;;;;20.17;18.50;;;6.50;99.90;;;;;;4973725;28;20207;-78
2020/12/18 09:15:41;;;;;;;20.80;19.13;;;6.50;99.90;;;;;;4968634;28;20202;-78
2020/12/18 09:18:09;;;;;;;19.93;18.30;;;6.50;99.90;;;;;;4973260;28;20241;-78
2020/12/18 09:20:36;;;;;;;20.03;18.43;;;6.50;99.90;;;;;;4973165;28;20672;-78
2020/12/18 09:23:06;;;;;;;18.60;17.13;;;6.50;99.90;;;;;;4970134;28;20663;-78
2020/12/18 09:25:37;;;;;;;19.40;17.87;;;6.60;99.90;;;;;;4970491;28;20214;-78
2020/12/18 09:28:04;;;;;;;19.40;18.00;;;6.60;99.90;;;;;;4973117;28;20237;-78
2020/12/18 09:30:31;;;;;;;19.37;17.90;;;6.60;99.90;;;;;;4972064;28;20574;-78
2020/12/18 09:33:16;;;;;;;19.50;18.00;;;6.60;99.90;;;;;;4972207;28;20576;-78
2020/12/18 09:35:42;;;;;;;20.67;18.87;;;6.70;99.90;;;;;;4968262;28;20644;-78
2020/12/18 09:38:10;;;;;;;20.00;18.40;;;6.70;99.90;;;;;;4964788;28;20302;-77
2020/12/18 09:40:37;;;;;;;19.30;17.80;;;6.80;99.90;;;;;;4973034;28;20203;-78
2020/12/18 09:43:04;;;;;;;19.40;17.83;;;6.90;99.90;;;;;;4974290;28;20186;-78
2020/12/18 09:45:31;;;;;;;20.90;19.30;;;6.90;99.90;;;;;;4969875;28;20335;-78
2020/12/18 09:47:57;;;;;;;20.90;19.20;;;6.90;99.90;;;;;;4970098;28;20221;-78
2020/12/18 09:50:23;;;;;;;21.80;19.93;;;7.00;99.90;;;;;;4971196;28;20226;-77
2020/12/18 09:52:49;;;;;;;21.20;19.50;;;7.00;99.90;;;;;;4971069;28;20201;-78
2020/12/18 09:55:17;;;;;;;19.97;18.37;;;7.00;99.90;;;;;;4971556;28;20210;-78
2020/12/18 09:57:43;;;;;;;19.23;17.53;;;7.00;99.90;;;;;;4972936;28;20225;-78
2020/12/18 10:00:09;;;;;;;20.27;18.47;;;7.10;99.90;;;;;;4973189;28;20202;-78
2020/12/18 10:02:39;;;;;;;20.20;18.60;;;7.10;99.90;;;;;;4967971;28;20191;-77
2020/12/18 10:05:06;;;;;;;19.17;17.67;;;7.20;99.90;;;;;;4969035;28;20253;-77
2020/12/18 10:07:32;;;;;;;19.77;18.20;;;7.30;99.90;;;;;;4968872;28;20250;-78
2020/12/18 10:09:59;;;;;;;16.53;15.20;;;7.30;99.90;;;;;;4970569;28;20191;-77
2020/12/18 10:12:26;;;;;;;16.60;15.20;;;7.40;99.90;;;;;;4970464;28;20199;-78
2020/12/18 10:14:52;;;;;;;17.43;16.13;;;7.40;99.90;;;;;;4961411;28;20665;-78
2020/12/18 10:17:18;;;;;;;18.27;16.87;;;7.40;99.90;;;;;;4972709;28;20238;-78
2020/12/18 10:19:45;;;;;;;19.50;18.00;;;7.40;99.90;;;;;;4964394;28;20229;-78
2020/12/18 10:22:11;;;;;;;20.37;18.87;;;7.40;99.90;;;;;;4972667;28;20226;-78
2020/12/18 10:24:37;;;;;;;18.17;16.77;;;7.40;99.90;;;;;;4974176;28;20222;-78
2020/12/18 10:27:04;;;;;;;19.13;17.60;;;7.40;99.90;;;;;;4972691;28;20233;-78
2020/12/18 10:29:31;;;;;;;19.50;18.07;;;7.40;99.90;;;;;;4971959;28;20747;-77
2020/12/18 10:32:00;;;;;;;19.13;17.73;;;7.50;99.90;;;;;;4972354;28;20241;-77
2020/12/18 10:34:26;;;;;;;19.13;17.60;;;7.60;99.90;;;;;;4972916;28;20198;-77
2020/12/18 10:36:55;;;;;;;19.73;18.23;;;7.60;99.90;;;;;;4973152;28;20266;-78
2020/12/18 10:39:23;;;;;;;18.97;17.57;;;7.60;99.90;;;;;;4973279;28;20252;-76
2020/12/18 10:41:49;;;;;;;18.17;16.77;;;7.70;99.90;;;;;;4971542;28;20198;-76
2020/12/18 10:44:16;;;;;;;18.33;17.03;;;7.70;99.90;;;;;;4973033;28;20194;-75
2020/12/18 10:46:44;;;;;;;18.80;17.50;;;7.80;99.90;;;;;;4971762;28;20216;-78
2020/12/18 10:49:10;;;;;;;19.63;18.20;;;7.80;99.90;;;;;;4966452;28;20235;-76
2020/12/18 10:51:41;;;;;;;18.77;17.40;;;7.90;99.90;;;;;;4973241;28;20617;-77
2020/12/18 10:54:07;;;;;;;19.30;17.80;;;7.90;99.90;;;;;;4971764;28;20593;-78
2020/12/18 10:56:39;;;;;;;18.00;16.70;;;7.90;99.90;;;;;;4971654;28;20261;-77
2020/12/18 10:59:05;;;;;;;15.47;14.23;;;8.00;99.90;;;;;;4971301;28;20699;-77
2020/12/18 11:01:31;;;;;;;10.47;8.53;;;8.00;99.90;;;;;;4963642;28;20224;-77
2020/12/18 11:03:58;;;;;;;17.00;15.80;;;8.10;99.90;;;;;;4963456;28;20230;-77
2020/12/18 11:06:24;;;;;;;15.90;14.70;;;8.10;99.90;;;;;;4963821;28;20255;-77
2020/12/18 11:08:51;;;;;;;13.47;12.37;;;8.20;99.90;;;;;;4968479;28;20293;-77
2020/12/18 11:11:17;;;;;;;16.83;15.50;;;8.20;99.90;;;;;;4972421;28;20234;-77
2020/12/18 11:13:43;;;;;;;15.87;14.57;;;8.30;99.90;;;;;;4971557;28;20235;-77
2020/12/18 11:16:11;;;;;;;18.67;17.27;;;8.30;99.90;;;;;;4972162;28;20235;-77
2020/12/18 11:18:37;;;;;;;17.27;15.87;;;8.40;99.90;;;;;;4976070;28;20220;-77
2020/12/18 11:21:05;;;;;;;17.63;16.43;;;8.40;99.90;;;;;;4975331;28;20209;-77
2020/12/18 11:23:31;;;;;;;18.03;16.73;;;8.50;99.90;;;;;;4975425;28;20219;-77
2020/12/18 11:25:58;;;;;;;16.27;15.03;;;8.50;99.90;;;;;;4975060;28;20626;-77
2020/12/18 11:28:24;;;;;;;16.77;15.53;;;8.60;99.90;;;;;;4974831;28;20224;-77
2020/12/18 11:30:50;;;;;;;16.20;15.00;;;8.60;99.90;;;;;;4975080;28;20224;-77
2020/12/18 11:33:17;;;;;;;17.03;15.83;;;8.60;99.90;;;;;;4976366;28;20271;-77
2020/12/18 11:35:43;;;;;;;18.83;17.43;;;8.70;99.90;;;;;;4976208;28;20204;-77
2020/12/18 11:38:10;;;;;;;17.57;16.27;;;8.70;99.90;;;;;;4974164;28;20363;-76
2020/12/18 11:40:38;;;;;;;17.13;15.93;;;8.80;99.90;;;;;;4977034;28;20220;-78
2020/12/18 11:43:05;;;;;;;16.67;15.57;;;8.80;99.90;;;;;;4975459;28;20700;-77
2020/12/18 11:45:32;;;;;;;17.53;16.27;;;8.90;99.90;;;;;;4976312;28;20192;-77
2020/12/18 11:47:58;;;;;;;17.17;15.97;;;8.90;99.90;;;;;;4975066;28;20213;-77
2020/12/18 11:50:28;;;;;;;16.53;15.33;;;9.00;99.90;;;;;;4974839;28;20828;-77
2020/12/18 11:52:54;;;;;;;17.03;15.73;;;9.00;99.90;;;;;;4974418;28;20246;-78
2020/12/18 11:55:21;;;;;;;16.93;15.63;;;9.00;99.90;;;;;;4976160;28;20571;-78
2020/12/18 11:57:48;;;;;;;17.73;16.53;;;9.00;99.90;;;;;;4974787;28;20739;-77
2020/12/18 12:00:14;;;;;;;17.13;15.83;;;9.10;99.90;;;;;;4975652;28;20229;-78
2020/12/18 12:02:40;;;;;;;16.10;15.00;;;9.10;99.90;;;;;;4975857;28;20196;-77
2020/12/18 12:05:07;;;;;;;16.67;15.50;;;9.10;99.90;;;;;;4974367;28;20248;-77
2020/12/18 12:07:33;;;;;;;15.63;14.53;;;9.20;99.90;;;;;;4971592;28;20245;-77
2020/12/18 12:10:00;;;;;;;17.03;15.83;;;9.10;99.90;;;;;;4971705;28;20198;-77
2020/12/18 12:12:27;;;;;;;16.97;15.77;;;9.20;99.90;;;;;;4972449;28;20544;-77
2020/12/18 12:14:54;;;;;;;16.60;15.40;;;9.20;99.90;;;;;;4971907;28;20580;-77
2020/12/18 12:17:20;;;;;;;16.73;15.53;;;9.20;99.90;;;;;;4974087;28;20221;-77
2020/12/18 12:19:47;;;;;;;17.13;15.93;;;9.20;99.90;;;;;;4971605;28;20218;-76
2020/12/18 12:22:13;;;;;;;16.60;15.50;;;9.30;99.90;;;;;;4974418;28;20627;-78
2020/12/18 12:24:42;;;;;;;16.53;15.33;;;9.30;99.90;;;;;;4975247;28;20206;-78
2020/12/18 12:27:11;;;;;;;15.60;14.50;;;9.30;99.90;;;;;;4963064;28;20227;-78
2020/12/18 12:29:38;;;;;;;16.63;15.53;;;9.40;99.90;;;;;;4966374;28;20192;-77
2020/12/18 12:32:06;;;;;;;16.33;15.23;;;9.50;99.90;;;;;;4974237;28;20565;-77
2020/12/18 12:34:32;;;;;;;15.60;14.60;;;9.50;99.90;;;;;;4975549;28;20669;-77
2020/12/18 12:37:00;;;;;;;16.30;15.30;;;9.50;99.90;;;;;;4975130;28;20288;-78
2020/12/18 12:39:27;;;;;;;16.00;15.00;;;9.60;99.90;;;;;;4973551;28;20260;-76
2020/12/18 12:41:54;;;;;;;16.03;14.90;;;9.60;99.90;;;;;;4969603;28;20204;-77
2020/12/18 12:44:21;;;;;;;15.90;14.83;;;9.60;99.90;;;;;;4971937;28;20217;-78
2020/12/18 12:46:48;;;;;;;16.03;15.03;;;9.60;99.90;;;;;;4971027;28;20223;-79
2020/12/18 12:49:14;;;;;;;16.10;15.00;;;9.60;99.90;;;;;;4972169;28;20220;-77
2020/12/18 12:51:41;;;;;;;15.23;14.13;;;9.60;99.90;;;;;;4968388;28;20267;-78
2020/12/18 12:54:08;;;;;;;15.20;14.20;;;9.70;99.90;;;;;;4968550;28;20308;-77
2020/12/18 12:56:34;;;;;;;15.53;14.43;;;9.70;99.90;;;;;;4970998;28;20703;-77
2020/12/18 12:59:01;;;;;;;15.10;14.10;;;9.80;99.90;;;;;;4973258;28;20304;-78